sensor_id;sensor_type;location;lat;lon;timestamp;P1;durP1;ratioP1;P2;durP2;ratioP2
56239;SDS011;42154;51.992;5.896;2022-10-15T00:01:13;66.75;;;20.00;;
56239;SDS011;42154;51.992;5.896;2022-10-15T00:03:41;63.78;;;20.02;;
56239;SDS011;42154;51.992;5.896;2022-10-15T00:06:11;47.08;;;17.80;;
56239;SDS011;42154;51.992;5.896;2022-10-15T00:08:39;43.25;;;18.02;;
56239;SDS011;42154;51.992;5.896;2022-10-15T00:11:07;36.20;;;19.90;;
56239;SDS011;42154;51.992;5.896;2022-10-15T00:13:35;32.00;;;18.50;;
56239;SDS011;42154;51.992;5.896;2022-10-15T00:16:02;61.15;;;20.77;;
56239;SDS011;42154;51.992;5.896;2022-10-15T00:18:28;49.72;;;20.38;;
56239;SDS011;42154;51.992;5.896;2022-10-15T00:20:54;53.33;;;18.17;;
56239;SDS011;42154;51.992;5.896;2022-10-15T00:23:20;49.88;;;19.63;;
56239;SDS011;42154;51.992;5.896;2022-10-15T00:25:46;72.20;;;19.88;;
56239;SDS011;42154;51.992;5.896;2022-10-15T00:28:12;45.63;;;18.23;;
56239;SDS011;42154;51.992;5.896;2022-10-15T00:30:37;53.53;;;18.88;;
56239;SDS011;42154;51.992;5.896;2022-10-15T00:33:03;54.17;;;18.20;;
56239;SDS011;42154;51.992;5.896;2022-10-15T00:35:29;49.85;;;17.13;;
56239;SDS011;42154;51.992;5.896;2022-10-15T00:37:54;57.20;;;18.90;;
56239;SDS011;42154;51.992;5.896;2022-10-15T00:40:20;62.08;;;19.10;;
56239;SDS011;42154;51.992;5.896;2022-10-15T00:42:47;37.67;;;16.42;;
56239;SDS011;42154;51.992;5.896;2022-10-15T00:45:13;52.70;;;18.02;;
56239;SDS011;42154;51.992;5.896;2022-10-15T00:47:40;43.30;;;17.58;;
56239;SDS011;42154;51.992;5.896;2022-10-15T00:50:16;34.55;;;15.90;;
56239;SDS011;42154;51.992;5.896;2022-10-15T00:57:51;55.20;;;18.55;;
56239;SDS011;42154;51.992;5.896;2022-10-15T01:00:17;21.98;;;16.15;;
56239;SDS011;42154;51.992;5.896;2022-10-15T01:02:44;17.17;;;15.38;;
56239;SDS011;42154;51.992;5.896;2022-10-15T01:05:11;19.13;;;15.50;;
56239;SDS011;42154;51.992;5.896;2022-10-15T01:07:39;16.58;;;14.77;;
56239;SDS011;42154;51.992;5.896;2022-10-15T01:10:05;17.70;;;15.90;;
56239;SDS011;42154;51.992;5.896;2022-10-15T01:15:44;16.00;;;13.68;;
56239;SDS011;42154;51.992;5.896;2022-10-15T01:18:32;14.82;;;13.30;;
56239;SDS011;42154;51.992;5.896;2022-10-15T01:21:20;16.42;;;14.65;;
56239;SDS011;42154;51.992;5.896;2022-10-15T01:32:26;15.18;;;13.50;;
56239;SDS011;42154;51.992;5.896;2022-10-15T01:40:43;18.05;;;14.25;;
56239;SDS011;42154;51.992;5.896;2022-10-15T01:43:47;16.42;;;14.65;;
56239;SDS011;42154;51.992;5.896;2022-10-15T01:46:41;16.17;;;14.00;;
56239;SDS011;42154;51.992;5.896;2022-10-15T01:49:17;16.73;;;14.13;;
56239;SDS011;42154;51.992;5.896;2022-10-15T01:51:48;18.50;;;15.38;;
56239;SDS011;42154;51.992;5.896;2022-10-15T01:54:17;16.52;;;14.75;;
56239;SDS011;42154;51.992;5.896;2022-10-15T01:56:48;17.50;;;14.13;;
56239;SDS011;42154;51.992;5.896;2022-10-15T01:59:19;17.58;;;14.68;;
56239;SDS011;42154;51.992;5.896;2022-10-15T02:01:47;17.45;;;15.27;;
56239;SDS011;42154;51.992;5.896;2022-10-15T02:04:21;17.30;;;15.05;;
56239;SDS011;42154;51.992;5.896;2022-10-15T02:06:49;21.17;;;16.08;;
56239;SDS011;42154;51.992;5.896;2022-10-15T02:11:59;19.20;;;14.32;;
56239;SDS011;42154;51.992;5.896;2022-10-15T02:14:41;19.45;;;14.48;;
56239;SDS011;42154;51.992;5.896;2022-10-15T02:17:23;17.38;;;15.02;;
56239;SDS011;42154;51.992;5.896;2022-10-15T02:20:09;17.73;;;14.55;;
56239;SDS011;42154;51.992;5.896;2022-10-15T02:22:49;16.90;;;14.68;;
56239;SDS011;42154;51.992;5.896;2022-10-15T02:25:22;17.73;;;14.75;;
56239;SDS011;42154;51.992;5.896;2022-10-15T02:27:50;23.20;;;17.20;;
56239;SDS011;42154;51.992;5.896;2022-10-15T02:30:18;23.95;;;18.38;;
56239;SDS011;42154;51.992;5.896;2022-10-15T02:32:46;23.48;;;17.45;;
56239;SDS011;42154;51.992;5.896;2022-10-15T02:35:19;21.35;;;16.67;;
56239;SDS011;42154;51.992;5.896;2022-10-15T02:37:47;23.20;;;17.67;;
56239;SDS011;42154;51.992;5.896;2022-10-15T02:40:18;23.52;;;16.73;;
56239;SDS011;42154;51.992;5.896;2022-10-15T02:42:51;21.77;;;17.05;;
56239;SDS011;42154;51.992;5.896;2022-10-15T02:45:17;23.38;;;17.88;;
56239;SDS011;42154;51.992;5.896;2022-10-15T02:47:43;27.67;;;19.95;;
56239;SDS011;42154;51.992;5.896;2022-10-15T02:50:09;26.27;;;19.45;;
56239;SDS011;42154;51.992;5.896;2022-10-15T02:52:35;29.88;;;21.80;;
56239;SDS011;42154;51.992;5.896;2022-10-15T02:55:00;25.27;;;19.75;;
56239;SDS011;42154;51.992;5.896;2022-10-15T02:57:26;25.40;;;19.48;;
56239;SDS011;42154;51.992;5.896;2022-10-15T02:59:52;26.35;;;19.40;;
56239;SDS011;42154;51.992;5.896;2022-10-15T03:02:18;23.85;;;18.25;;
56239;SDS011;42154;51.992;5.896;2022-10-15T03:04:44;25.52;;;19.17;;
56239;SDS011;42154;51.992;5.896;2022-10-15T03:07:10;29.48;;;19.48;;
56239;SDS011;42154;51.992;5.896;2022-10-15T03:09:37;26.85;;;20.23;;
56239;SDS011;42154;51.992;5.896;2022-10-15T03:12:04;24.20;;;18.05;;
56239;SDS011;42154;51.992;5.896;2022-10-15T03:14:30;24.77;;;19.05;;
56239;SDS011;42154;51.992;5.896;2022-10-15T03:16:58;27.20;;;19.25;;
56239;SDS011;42154;51.992;5.896;2022-10-15T03:19:24;27.42;;;19.52;;
56239;SDS011;42154;51.992;5.896;2022-10-15T03:21:52;26.67;;;19.92;;
56239;SDS011;42154;51.992;5.896;2022-10-15T03:24:18;28.33;;;20.35;;
56239;SDS011;42154;51.992;5.896;2022-10-15T03:26:43;25.85;;;19.92;;
56239;SDS011;42154;51.992;5.896;2022-10-15T03:29:09;26.17;;;19.75;;
56239;SDS011;42154;51.992;5.896;2022-10-15T03:31:52;25.17;;;19.45;;
56239;SDS011;42154;51.992;5.896;2022-10-15T03:34:19;24.52;;;19.02;;
56239;SDS011;42154;51.992;5.896;2022-10-15T03:36:45;25.30;;;19.17;;
56239;SDS011;42154;51.992;5.896;2022-10-15T03:39:11;27.85;;;19.30;;
56239;SDS011;42154;51.992;5.896;2022-10-15T03:41:38;25.77;;;18.42;;
56239;SDS011;42154;51.992;5.896;2022-10-15T03:44:04;29.25;;;20.73;;
56239;SDS011;42154;51.992;5.896;2022-10-15T03:46:33;30.63;;;21.95;;
56239;SDS011;42154;51.992;5.896;2022-10-15T03:48:59;26.83;;;19.38;;
56239;SDS011;42154;51.992;5.896;2022-10-15T03:51:25;31.83;;;21.20;;
56239;SDS011;42154;51.992;5.896;2022-10-15T03:53:56;26.33;;;19.35;;
56239;SDS011;42154;51.992;5.896;2022-10-15T03:56:22;26.40;;;19.45;;
56239;SDS011;42154;51.992;5.896;2022-10-15T03:58:48;28.50;;;20.55;;
56239;SDS011;42154;51.992;5.896;2022-10-15T04:01:15;23.50;;;18.13;;
56239;SDS011;42154;51.992;5.896;2022-10-15T04:03:42;25.02;;;18.90;;
56239;SDS011;42154;51.992;5.896;2022-10-15T04:06:08;23.58;;;17.98;;
56239;SDS011;42154;51.992;5.896;2022-10-15T04:08:35;26.30;;;20.05;;
56239;SDS011;42154;51.992;5.896;2022-10-15T04:11:15;28.42;;;20.50;;
56239;SDS011;42154;51.992;5.896;2022-10-15T04:13:42;28.65;;;20.45;;
56239;SDS011;42154;51.992;5.896;2022-10-15T04:16:12;28.52;;;19.92;;
56239;SDS011;42154;51.992;5.896;2022-10-15T04:18:37;30.33;;;21.88;;
56239;SDS011;42154;51.992;5.896;2022-10-15T04:21:03;32.00;;;21.25;;
56239;SDS011;42154;51.992;5.896;2022-10-15T04:23:31;28.90;;;20.63;;
56239;SDS011;42154;51.992;5.896;2022-10-15T04:26:23;27.20;;;19.75;;
56239;SDS011;42154;51.992;5.896;2022-10-15T04:28:48;30.00;;;21.40;;
56239;SDS011;42154;51.992;5.896;2022-10-15T04:31:16;31.48;;;22.73;;
56239;SDS011;42154;51.992;5.896;2022-10-15T04:33:42;32.08;;;22.33;;
56239;SDS011;42154;51.992;5.896;2022-10-15T04:36:09;29.05;;;20.98;;
56239;SDS011;42154;51.992;5.896;2022-10-15T04:39:03;30.15;;;20.92;;
56239;SDS011;42154;51.992;5.896;2022-10-15T04:41:36;29.42;;;22.10;;
56239;SDS011;42154;51.992;5.896;2022-10-15T04:44:05;28.23;;;20.23;;
56239;SDS011;42154;51.992;5.896;2022-10-15T04:46:31;29.00;;;21.13;;
56239;SDS011;42154;51.992;5.896;2022-10-15T04:49:03;28.48;;;20.63;;
56239;SDS011;42154;51.992;5.896;2022-10-15T04:51:29;30.67;;;21.25;;
56239;SDS011;42154;51.992;5.896;2022-10-15T04:54:02;28.35;;;19.63;;
56239;SDS011;42154;51.992;5.896;2022-10-15T04:56:29;25.70;;;19.05;;
56239;SDS011;42154;51.992;5.896;2022-10-15T04:58:55;25.23;;;19.42;;
56239;SDS011;42154;51.992;5.896;2022-10-15T05:01:24;29.23;;;21.27;;
56239;SDS011;42154;51.992;5.896;2022-10-15T05:03:58;25.52;;;19.13;;
56239;SDS011;42154;51.992;5.896;2022-10-15T05:06:25;26.50;;;19.77;;
56239;SDS011;42154;51.992;5.896;2022-10-15T05:11:26;28.55;;;19.27;;
56239;SDS011;42154;51.992;5.896;2022-10-15T05:13:54;27.08;;;19.85;;
56239;SDS011;42154;51.992;5.896;2022-10-15T05:16:23;26.17;;;19.02;;
56239;SDS011;42154;51.992;5.896;2022-10-15T05:18:51;26.70;;;18.92;;
56239;SDS011;42154;51.992;5.896;2022-10-15T05:21:20;27.17;;;19.40;;
56239;SDS011;42154;51.992;5.896;2022-10-15T05:23:49;28.55;;;20.50;;
56239;SDS011;42154;51.992;5.896;2022-10-15T05:26:26;25.83;;;18.73;;
56239;SDS011;42154;51.992;5.896;2022-10-15T05:28:54;22.05;;;17.17;;
56239;SDS011;42154;51.992;5.896;2022-10-15T05:31:26;23.35;;;18.88;;
56239;SDS011;42154;51.992;5.896;2022-10-15T05:34:14;24.65;;;18.58;;
56239;SDS011;42154;51.992;5.896;2022-10-15T05:36:48;23.48;;;18.75;;
56239;SDS011;42154;51.992;5.896;2022-10-15T05:39:14;25.10;;;17.88;;
56239;SDS011;42154;51.992;5.896;2022-10-15T05:41:42;24.30;;;18.88;;
56239;SDS011;42154;51.992;5.896;2022-10-15T05:44:08;26.23;;;18.88;;
56239;SDS011;42154;51.992;5.896;2022-10-15T05:46:34;25.88;;;18.08;;
56239;SDS011;42154;51.992;5.896;2022-10-15T05:48:59;27.08;;;20.15;;
56239;SDS011;42154;51.992;5.896;2022-10-15T05:51:27;34.00;;;24.45;;
56239;SDS011;42154;51.992;5.896;2022-10-15T05:53:59;27.63;;;20.23;;
56239;SDS011;42154;51.992;5.896;2022-10-15T05:56:25;27.35;;;20.38;;
56239;SDS011;42154;51.992;5.896;2022-10-15T05:58:52;27.60;;;19.85;;
56239;SDS011;42154;51.992;5.896;2022-10-15T06:01:20;35.03;;;26.00;;
56239;SDS011;42154;51.992;5.896;2022-10-15T06:03:50;35.83;;;26.45;;
56239;SDS011;42154;51.992;5.896;2022-10-15T06:08:43;36.58;;;26.25;;
56239;SDS011;42154;51.992;5.896;2022-10-15T06:11:09;32.10;;;25.52;;
56239;SDS011;42154;51.992;5.896;2022-10-15T06:13:36;31.60;;;22.80;;
56239;SDS011;42154;51.992;5.896;2022-10-15T06:16:03;24.35;;;18.23;;
56239;SDS011;42154;51.992;5.896;2022-10-15T06:18:29;29.70;;;20.80;;
56239;SDS011;42154;51.992;5.896;2022-10-15T06:20:55;41.35;;;29.13;;
56239;SDS011;42154;51.992;5.896;2022-10-15T06:23:21;35.30;;;25.38;;
56239;SDS011;42154;51.992;5.896;2022-10-15T06:25:48;47.28;;;30.13;;
56239;SDS011;42154;51.992;5.896;2022-10-15T06:28:14;35.13;;;26.65;;
56239;SDS011;42154;51.992;5.896;2022-10-15T06:30:41;32.50;;;23.98;;
56239;SDS011;42154;51.992;5.896;2022-10-15T06:33:07;30.42;;;21.23;;
56239;SDS011;42154;51.992;5.896;2022-10-15T06:35:33;34.40;;;23.27;;
56239;SDS011;42154;51.992;5.896;2022-10-15T06:38:00;31.70;;;23.33;;
56239;SDS011;42154;51.992;5.896;2022-10-15T06:40:27;47.55;;;31.58;;
56239;SDS011;42154;51.992;5.896;2022-10-15T06:42:52;45.50;;;30.70;;
56239;SDS011;42154;51.992;5.896;2022-10-15T06:45:18;35.35;;;24.15;;
56239;SDS011;42154;51.992;5.896;2022-10-15T06:47:44;36.33;;;25.40;;
56239;SDS011;42154;51.992;5.896;2022-10-15T06:50:10;34.75;;;25.13;;
56239;SDS011;42154;51.992;5.896;2022-10-15T06:52:36;41.85;;;28.52;;
56239;SDS011;42154;51.992;5.896;2022-10-15T06:55:02;35.13;;;24.15;;
56239;SDS011;42154;51.992;5.896;2022-10-15T06:57:29;28.35;;;20.33;;
56239;SDS011;42154;51.992;5.896;2022-10-15T06:59:55;30.60;;;20.65;;
56239;SDS011;42154;51.992;5.896;2022-10-15T07:02:21;46.67;;;29.63;;
56239;SDS011;42154;51.992;5.896;2022-10-15T07:04:48;36.40;;;24.20;;
56239;SDS011;42154;51.992;5.896;2022-10-15T07:07:18;37.08;;;26.17;;
56239;SDS011;42154;51.992;5.896;2022-10-15T07:09:44;28.92;;;20.05;;
56239;SDS011;42154;51.992;5.896;2022-10-15T07:12:11;33.35;;;22.25;;
56239;SDS011;42154;51.992;5.896;2022-10-15T07:14:37;31.77;;;20.98;;
56239;SDS011;42154;51.992;5.896;2022-10-15T07:17:04;28.25;;;19.42;;
56239;SDS011;42154;51.992;5.896;2022-10-15T07:19:29;30.58;;;21.55;;
56239;SDS011;42154;51.992;5.896;2022-10-15T07:21:55;33.72;;;24.45;;
56239;SDS011;42154;51.992;5.896;2022-10-15T07:24:21;26.80;;;18.38;;
56239;SDS011;42154;51.992;5.896;2022-10-15T07:26:47;34.03;;;21.98;;
56239;SDS011;42154;51.992;5.896;2022-10-15T07:29:12;26.23;;;19.20;;
56239;SDS011;42154;51.992;5.896;2022-10-15T07:31:38;32.05;;;22.40;;
56239;SDS011;42154;51.992;5.896;2022-10-15T07:34:04;27.75;;;20.05;;
56239;SDS011;42154;51.992;5.896;2022-10-15T07:36:30;25.13;;;17.17;;
56239;SDS011;42154;51.992;5.896;2022-10-15T07:38:56;41.17;;;27.35;;
56239;SDS011;42154;51.992;5.896;2022-10-15T07:41:22;31.98;;;21.83;;
56239;SDS011;42154;51.992;5.896;2022-10-15T07:43:50;28.75;;;19.58;;
56239;SDS011;42154;51.992;5.896;2022-10-15T07:46:17;33.35;;;23.15;;
56239;SDS011;42154;51.992;5.896;2022-10-15T07:48:43;28.30;;;20.27;;
56239;SDS011;42154;51.992;5.896;2022-10-15T07:51:09;29.60;;;19.40;;
56239;SDS011;42154;51.992;5.896;2022-10-15T07:53:35;32.83;;;22.17;;
56239;SDS011;42154;51.992;5.896;2022-10-15T07:56:02;27.92;;;19.70;;
56239;SDS011;42154;51.992;5.896;2022-10-15T07:58:31;32.10;;;20.20;;
56239;SDS011;42154;51.992;5.896;2022-10-15T08:01:02;51.47;;;30.13;;
56239;SDS011;42154;51.992;5.896;2022-10-15T08:03:29;42.78;;;28.20;;
56239;SDS011;42154;51.992;5.896;2022-10-15T08:05:55;35.92;;;23.52;;
56239;SDS011;42154;51.992;5.896;2022-10-15T08:08:24;37.25;;;25.73;;
56239;SDS011;42154;51.992;5.896;2022-10-15T08:10:50;34.03;;;22.13;;
56239;SDS011;42154;51.992;5.896;2022-10-15T08:13:15;42.72;;;29.83;;
56239;SDS011;42154;51.992;5.896;2022-10-15T08:15:43;31.98;;;21.83;;
56239;SDS011;42154;51.992;5.896;2022-10-15T08:18:09;38.78;;;26.52;;
56239;SDS011;42154;51.992;5.896;2022-10-15T08:20:38;33.90;;;23.00;;
56239;SDS011;42154;51.992;5.896;2022-10-15T08:23:04;33.00;;;22.52;;
56239;SDS011;42154;51.992;5.896;2022-10-15T08:25:37;29.40;;;20.73;;
56239;SDS011;42154;51.992;5.896;2022-10-15T08:28:05;25.52;;;18.48;;
56239;SDS011;42154;51.992;5.896;2022-10-15T08:30:30;37.78;;;27.67;;
56239;SDS011;42154;51.992;5.896;2022-10-15T08:32:56;32.08;;;22.77;;
56239;SDS011;42154;51.992;5.896;2022-10-15T08:35:22;35.13;;;25.05;;
56239;SDS011;42154;51.992;5.896;2022-10-15T08:37:48;30.13;;;21.80;;
56239;SDS011;42154;51.992;5.896;2022-10-15T08:40:17;30.52;;;21.38;;
56239;SDS011;42154;51.992;5.896;2022-10-15T08:42:44;33.42;;;22.83;;
56239;SDS011;42154;51.992;5.896;2022-10-15T08:45:17;33.85;;;22.70;;
56239;SDS011;42154;51.992;5.896;2022-10-15T08:48:09;26.55;;;19.70;;
56239;SDS011;42154;51.992;5.896;2022-10-15T08:50:54;28.67;;;20.80;;
56239;SDS011;42154;51.992;5.896;2022-10-15T08:53:25;30.92;;;21.42;;
56239;SDS011;42154;51.992;5.896;2022-10-15T08:55:54;34.00;;;23.60;;
56239;SDS011;42154;51.992;5.896;2022-10-15T09:01:45;32.50;;;21.92;;
56239;SDS011;42154;51.992;5.896;2022-10-15T09:04:39;31.75;;;24.20;;
56239;SDS011;42154;51.992;5.896;2022-10-15T09:10:17;33.08;;;22.25;;
56239;SDS011;42154;51.992;5.896;2022-10-15T09:16:04;26.45;;;17.63;;
56239;SDS011;42154;51.992;5.896;2022-10-15T09:18:48;22.45;;;15.75;;
56239;SDS011;42154;51.992;5.896;2022-10-15T09:21:21;24.20;;;17.30;;
56239;SDS011;42154;51.992;5.896;2022-10-15T09:23:50;22.45;;;16.27;;
56239;SDS011;42154;51.992;5.896;2022-10-15T09:29:22;25.90;;;18.42;;
56239;SDS011;42154;51.992;5.896;2022-10-15T09:31:57;28.67;;;21.45;;
56239;SDS011;42154;51.992;5.896;2022-10-15T09:34:44;32.80;;;23.73;;
56239;SDS011;42154;51.992;5.896;2022-10-15T09:43:08;22.85;;;16.05;;
56239;SDS011;42154;51.992;5.896;2022-10-15T09:45:36;19.30;;;14.85;;
56239;SDS011;42154;51.992;5.896;2022-10-15T09:48:04;27.70;;;17.98;;
56239;SDS011;42154;51.992;5.896;2022-10-15T09:50:42;23.50;;;17.27;;
56239;SDS011;42154;51.992;5.896;2022-10-15T09:53:24;22.38;;;15.73;;
56239;SDS011;42154;51.992;5.896;2022-10-15T09:56:34;16.70;;;11.88;;
56239;SDS011;42154;51.992;5.896;2022-10-15T09:59:03;20.77;;;16.23;;
56239;SDS011;42154;51.992;5.896;2022-10-15T10:01:30;16.55;;;12.20;;
56239;SDS011;42154;51.992;5.896;2022-10-15T10:07:01;16.40;;;11.90;;
56239;SDS011;42154;51.992;5.896;2022-10-15T10:09:32;14.50;;;11.05;;
56239;SDS011;42154;51.992;5.896;2022-10-15T10:12:24;15.88;;;11.77;;
56239;SDS011;42154;51.992;5.896;2022-10-15T10:17:53;15.65;;;10.32;;
56239;SDS011;42154;51.992;5.896;2022-10-15T10:20:27;14.15;;;10.55;;
56239;SDS011;42154;51.992;5.896;2022-10-15T10:22:58;15.25;;;9.98;;
56239;SDS011;42154;51.992;5.896;2022-10-15T10:30:59;19.35;;;14.57;;
56239;SDS011;42154;51.992;5.896;2022-10-15T10:36:17;13.45;;;8.88;;
56239;SDS011;42154;51.992;5.896;2022-10-15T10:41:47;13.07;;;9.95;;
56239;SDS011;42154;51.992;5.896;2022-10-15T10:44:33;22.92;;;14.57;;
56239;SDS011;42154;51.992;5.896;2022-10-15T10:49:32;15.13;;;11.10;;
56239;SDS011;42154;51.992;5.896;2022-10-15T10:52:08;16.92;;;11.88;;
56239;SDS011;42154;51.992;5.896;2022-10-15T10:54:58;18.33;;;13.35;;
56239;SDS011;42154;51.992;5.896;2022-10-15T10:57:47;16.15;;;11.63;;
56239;SDS011;42154;51.992;5.896;2022-10-15T11:00:16;16.43;;;12.27;;
56239;SDS011;42154;51.992;5.896;2022-10-15T11:02:50;16.60;;;11.63;;
56239;SDS011;42154;51.992;5.896;2022-10-15T11:05:26;14.32;;;10.90;;
56239;SDS011;42154;51.992;5.896;2022-10-15T11:18:52;29.67;;;19.33;;
56239;SDS011;42154;51.992;5.896;2022-10-15T11:21:43;19.38;;;12.40;;
56239;SDS011;42154;51.992;5.896;2022-10-15T11:24:18;13.98;;;10.45;;
56239;SDS011;42154;51.992;5.896;2022-10-15T11:29:46;9.95;;;7.68;;
56239;SDS011;42154;51.992;5.896;2022-10-15T11:35:45;14.23;;;9.15;;
56239;SDS011;42154;51.992;5.896;2022-10-15T11:41:16;15.98;;;10.77;;
56239;SDS011;42154;51.992;5.896;2022-10-15T11:46:26;11.75;;;7.55;;
56239;SDS011;42154;51.992;5.896;2022-10-15T11:49:22;8.23;;;5.68;;
56239;SDS011;42154;51.992;5.896;2022-10-15T11:52:04;10.13;;;7.10;;
56239;SDS011;42154;51.992;5.896;2022-10-15T11:54:38;10.70;;;7.28;;
56239;SDS011;42154;51.992;5.896;2022-10-15T11:57:10;6.60;;;5.40;;
56239;SDS011;42154;51.992;5.896;2022-10-15T11:59:47;7.93;;;5.82;;
56239;SDS011;42154;51.992;5.896;2022-10-15T12:04:49;7.82;;;5.05;;
56239;SDS011;42154;51.992;5.896;2022-10-15T12:07:24;7.97;;;5.78;;
56239;SDS011;42154;51.992;5.896;2022-10-15T12:13:16;5.43;;;4.18;;
56239;SDS011;42154;51.992;5.896;2022-10-15T12:18:56;4.88;;;3.88;;
56239;SDS011;42154;51.992;5.896;2022-10-15T12:21:42;5.10;;;3.67;;
56239;SDS011;42154;51.992;5.896;2022-10-15T12:29:43;6.93;;;5.15;;
56239;SDS011;42154;51.992;5.896;2022-10-15T12:32:28;5.70;;;4.50;;
56239;SDS011;42154;51.992;5.896;2022-10-15T12:35:02;6.32;;;5.20;;
56239;SDS011;42154;51.992;5.896;2022-10-15T12:37:31;7.57;;;5.70;;
56239;SDS011;42154;51.992;5.896;2022-10-15T12:40:45;6.20;;;4.43;;
56239;SDS011;42154;51.992;5.896;2022-10-15T12:43:10;5.93;;;5.22;;
56239;SDS011;42154;51.992;5.896;2022-10-15T12:45:49;5.90;;;3.50;;
56239;SDS011;42154;51.992;5.896;2022-10-15T12:48:22;3.58;;;3.22;;
56239;SDS011;42154;51.992;5.896;2022-10-15T12:51:40;4.78;;;4.30;;
56239;SDS011;42154;51.992;5.896;2022-10-15T12:53:41;5.82;;;5.07;;
56239;SDS011;42154;51.992;5.896;2022-10-15T12:58:39;4.90;;;4.40;;
56239;SDS011;42154;51.992;5.896;2022-10-15T13:03:43;4.20;;;3.80;;
56239;SDS011;42154;51.992;5.896;2022-10-15T13:08:51;6.18;;;4.80;;
56239;SDS011;42154;51.992;5.896;2022-10-15T13:11:50;3.92;;;3.55;;
56239;SDS011;42154;51.992;5.896;2022-10-15T13:14:31;5.10;;;4.63;;
56239;SDS011;42154;51.992;5.896;2022-10-15T13:17:12;4.05;;;3.70;;
56239;SDS011;42154;51.992;5.896;2022-10-15T13:19:46;4.13;;;3.50;;
56239;SDS011;42154;51.992;5.896;2022-10-15T13:22:20;4.20;;;3.75;;
56239;SDS011;42154;51.992;5.896;2022-10-15T13:24:47;3.17;;;2.92;;
56239;SDS011;42154;51.992;5.896;2022-10-15T13:29:51;4.88;;;3.83;;
56239;SDS011;42154;51.992;5.896;2022-10-15T13:32:22;3.80;;;3.10;;
56239;SDS011;42154;51.992;5.896;2022-10-15T13:34:49;4.32;;;3.15;;
56239;SDS011;42154;51.992;5.896;2022-10-15T13:37:28;2.88;;;2.60;;
56239;SDS011;42154;51.992;5.896;2022-10-15T13:39:56;4.18;;;3.78;;
56239;SDS011;42154;51.992;5.896;2022-10-15T13:42:23;4.22;;;3.30;;
56239;SDS011;42154;51.992;5.896;2022-10-15T13:44:57;4.10;;;3.75;;
56239;SDS011;42154;51.992;5.896;2022-10-15T13:47:35;5.65;;;5.13;;
56239;SDS011;42154;51.992;5.896;2022-10-15T13:52:59;5.35;;;4.35;;
56239;SDS011;42154;51.992;5.896;2022-10-15T13:55:43;5.72;;;4.95;;
56239;SDS011;42154;51.992;5.896;2022-10-15T13:58:23;5.15;;;4.65;;
56239;SDS011;42154;51.992;5.896;2022-10-15T14:03:23;5.53;;;5.03;;
56239;SDS011;42154;51.992;5.896;2022-10-15T14:05:51;5.90;;;5.40;;
56239;SDS011;42154;51.992;5.896;2022-10-15T14:08:22;7.47;;;5.45;;
56239;SDS011;42154;51.992;5.896;2022-10-15T14:10:51;7.80;;;7.00;;
56239;SDS011;42154;51.992;5.896;2022-10-15T14:13:19;8.00;;;7.20;;
56239;SDS011;42154;51.992;5.896;2022-10-15T14:15:47;7.63;;;6.93;;
56239;SDS011;42154;51.992;5.896;2022-10-15T14:18:28;6.75;;;6.15;;
56239;SDS011;42154;51.992;5.896;2022-10-15T14:20:56;7.13;;;6.38;;
56239;SDS011;42154;51.992;5.896;2022-10-15T14:23:23;6.75;;;5.88;;
56239;SDS011;42154;51.992;5.896;2022-10-15T14:25:53;6.57;;;5.88;;
56239;SDS011;42154;51.992;5.896;2022-10-15T14:28:21;6.07;;;5.50;;
56239;SDS011;42154;51.992;5.896;2022-10-15T14:30:49;6.35;;;5.65;;
56239;SDS011;42154;51.992;5.896;2022-10-15T14:33:28;5.63;;;5.13;;
56239;SDS011;42154;51.992;5.896;2022-10-15T14:38:32;5.45;;;4.95;;
56239;SDS011;42154;51.992;5.896;2022-10-15T14:40:59;5.78;;;5.28;;
56239;SDS011;42154;51.992;5.896;2022-10-15T14:43:45;5.22;;;4.82;;
56239;SDS011;42154;51.992;5.896;2022-10-15T14:46:23;5.95;;;5.45;;
56239;SDS011;42154;51.992;5.896;2022-10-15T14:48:49;6.75;;;5.75;;
56239;SDS011;42154;51.992;5.896;2022-10-15T14:51:19;5.60;;;5.10;;
56239;SDS011;42154;51.992;5.896;2022-10-15T14:53:49;8.23;;;5.68;;
56239;SDS011;42154;51.992;5.896;2022-10-15T14:56:20;5.78;;;5.20;;
56239;SDS011;42154;51.992;5.896;2022-10-15T14:58:53;6.80;;;5.45;;
56239;SDS011;42154;51.992;5.896;2022-10-15T15:01:20;5.90;;;5.40;;
56239;SDS011;42154;51.992;5.896;2022-10-15T15:03:50;5.95;;;5.45;;
56239;SDS011;42154;51.992;5.896;2022-10-15T15:06:17;7.25;;;5.00;;
56239;SDS011;42154;51.992;5.896;2022-10-15T15:08:43;5.22;;;4.72;;
56239;SDS011;42154;51.992;5.896;2022-10-15T15:11:09;5.13;;;4.68;;
56239;SDS011;42154;51.992;5.896;2022-10-15T15:13:38;5.85;;;5.35;;
56239;SDS011;42154;51.992;5.896;2022-10-15T15:16:06;4.32;;;3.92;;
56239;SDS011;42154;51.992;5.896;2022-10-15T15:18:34;4.93;;;4.53;;
56239;SDS011;42154;51.992;5.896;2022-10-15T15:21:00;6.43;;;5.72;;
56239;SDS011;42154;51.992;5.896;2022-10-15T15:23:29;6.97;;;5.70;;
56239;SDS011;42154;51.992;5.896;2022-10-15T15:25:55;6.45;;;4.55;;
56239;SDS011;42154;51.992;5.896;2022-10-15T15:28:22;5.18;;;4.68;;
56239;SDS011;42154;51.992;5.896;2022-10-15T15:30:54;6.07;;;4.05;;
56239;SDS011;42154;51.992;5.896;2022-10-15T15:33:22;5.40;;;4.90;;
56239;SDS011;42154;51.992;5.896;2022-10-15T15:35:49;4.13;;;3.72;;
56239;SDS011;42154;51.992;5.896;2022-10-15T15:38:17;4.05;;;3.50;;
56239;SDS011;42154;51.992;5.896;2022-10-15T15:40:48;3.67;;;2.92;;
56239;SDS011;42154;51.992;5.896;2022-10-15T15:43:15;3.15;;;2.85;;
56239;SDS011;42154;51.992;5.896;2022-10-15T15:45:43;2.92;;;2.60;;
56239;SDS011;42154;51.992;5.896;2022-10-15T15:48:10;3.35;;;2.30;;
56239;SDS011;42154;51.992;5.896;2022-10-15T15:50:36;3.20;;;2.78;;
56239;SDS011;42154;51.992;5.896;2022-10-15T15:53:02;1.80;;;1.70;;
56239;SDS011;42154;51.992;5.896;2022-10-15T15:55:28;2.80;;;2.40;;
56239;SDS011;42154;51.992;5.896;2022-10-15T15:57:54;6.32;;;2.33;;
56239;SDS011;42154;51.992;5.896;2022-10-15T16:00:20;3.22;;;2.03;;
56239;SDS011;42154;51.992;5.896;2022-10-15T16:02:46;3.88;;;2.75;;
56239;SDS011;42154;51.992;5.896;2022-10-15T16:05:13;6.15;;;4.28;;
56239;SDS011;42154;51.992;5.896;2022-10-15T16:07:40;6.15;;;3.60;;
56239;SDS011;42154;51.992;5.896;2022-10-15T16:10:07;3.65;;;2.90;;
56239;SDS011;42154;51.992;5.896;2022-10-15T16:12:36;4.60;;;3.00;;
56239;SDS011;42154;51.992;5.896;2022-10-15T16:15:03;5.13;;;3.03;;
56239;SDS011;42154;51.992;5.896;2022-10-15T16:17:29;5.15;;;3.03;;
56239;SDS011;42154;51.992;5.896;2022-10-15T16:19:55;5.38;;;3.53;;
56239;SDS011;42154;51.992;5.896;2022-10-15T16:22:20;5.00;;;3.85;;
56239;SDS011;42154;51.992;5.896;2022-10-15T16:24:46;5.03;;;3.85;;
56239;SDS011;42154;51.992;5.896;2022-10-15T16:27:12;5.25;;;4.20;;
56239;SDS011;42154;51.992;5.896;2022-10-15T16:29:37;6.28;;;3.67;;
56239;SDS011;42154;51.992;5.896;2022-10-15T16:32:03;7.32;;;4.40;;
56239;SDS011;42154;51.992;5.896;2022-10-15T16:34:29;4.38;;;3.67;;
56239;SDS011;42154;51.992;5.896;2022-10-15T16:36:55;3.67;;;2.33;;
56239;SDS011;42154;51.992;5.896;2022-10-15T16:39:21;2.88;;;2.17;;
56239;SDS011;42154;51.992;5.896;2022-10-15T16:41:47;5.60;;;2.90;;
56239;SDS011;42154;51.992;5.896;2022-10-15T16:44:13;5.07;;;2.60;;
56239;SDS011;42154;51.992;5.896;2022-10-15T16:46:39;4.80;;;2.25;;
56239;SDS011;42154;51.992;5.896;2022-10-15T16:49:05;3.15;;;2.10;;
56239;SDS011;42154;51.992;5.896;2022-10-15T16:51:31;2.10;;;1.40;;
56239;SDS011;42154;51.992;5.896;2022-10-15T16:53:56;3.40;;;1.90;;